Latest Weather Observations for Casterton

IDV60801

Issued at 4:05 pm EDT Thursday 27 November 2014 (issued every 30 minutes, with the page automatically refreshed every 10 minutes)

About weather observations | Map of weather stations | Latest weather observations for VIC | Other Formats
Station Details ID: 090182 Name: CASTERTON Lat: -37.58 Lon: 141.33 Height: 130.6 m
Data from the previous 72 hours. | See also: Recent months at Casterton
Date/Time
EDT
Temp
°C
App
Temp
°C
Dew
Point
Rel
Hum
%
Delta-T
°C
Wind Press
QNH
hPa
Press
MSL
hPa
Rain
since 9 am
mm
Dir
 
Spd
km/h
Gust
km/h
Spd
kts
Gust
kts
27/04:00pm 22.8 18.9 8.5 40 7.6 SE 19 26 10 14 1022.6 - 0.0
27/03:30pm 22.6 18.2 6.4 35 8.3 SSE 19 28 10 15 1022.9 - 0.0
27/03:00pm 22.9 19.0 7.0 36 8.2 SSE 17 26 9 14 1023.1 1022.9 0.0
27/02:30pm 22.0 17.4 6.3 36 8.0 ESE 20 28 11 15 1023.5 - 0.0
27/02:00pm 22.3 18.7 8.4 41 7.4 SE 17 24 9 13 1023.7 - 0.0
27/01:30pm 21.0 16.9 8.0 43 6.8 ESE 19 32 10 17 1024.0 - 0.0
27/01:00pm 20.6 16.3 7.2 42 6.9 ESE 19 30 10 16 1024.4 - 0.0
27/12:30pm 20.2 16.2 8.2 46 6.3 ESE 19 30 10 16 1024.7 - 0.0
27/12:00pm 19.1 15.4 7.8 48 5.8 SE 17 30 9 16 1025.1 1024.9 0.0
27/11:30am 18.3 14.1 7.4 49 5.5 SE 19 32 10 17 1025.3 - 0.0
27/11:00am 17.9 13.7 7.6 51 5.2 SE 19 30 10 16 1025.5 - 0.0
27/10:30am 16.9 12.1 7.5 54 4.7 SSE 22 30 12 16 1025.6 - 0.0
27/10:00am 16.0 11.7 7.2 56 4.4 E 19 28 10 15 1025.7 - 0.0
27/09:30am 14.7 10.2 6.8 59 3.9 ESE 20 32 11 17 1026.0 - 0.0
27/09:00am 13.6 9.2 7.2 65 3.1 ESE 20 30 11 16 1026.1 1026.0 0.0
27/08:30am 13.5 10.2 7.9 69 2.8 ESE 15 22 8 12 1025.9 - 0.0
27/08:00am 12.5 9.4 7.4 71 2.5 SE 13 17 7 9 1025.7 - 0.0
27/07:30am 10.8 8.3 8.4 85 1.2 SE 11 15 6 8 1025.2 - 0.0
27/07:00am 8.4 6.3 8.1 98 0.1 SE 9 11 5 6 1025.1 - 0.0
27/06:30am 5.5 2.3 5.2 98 0.1 SSE 11 15 6 8 1025.0 - 0.0
27/06:00am 4.8 2.3 4.5 98 0.1 SSE 7 9 4 5 1024.8 1024.6 0.0
27/05:30am 2.6 -0.4 2.2 97 0.2 SSE 7 9 4 5 1024.6 - 0.0
27/05:00am 6.2 4.1 5.9 98 0.1 SSE 6 6 3 3 1024.7 - 0.0
27/04:30am 6.6 4.6 6.2 97 0.2 SSE 6 7 3 4 1024.5 - 0.0
27/04:00am 6.5 4.3 6.1 97 0.2 SSE 7 9 4 5 1024.2 - 0.0
27/03:30am 6.9 4.8 6.6 98 0.1 SE 7 9 4 5 1024.1 - 0.0
27/03:00am 6.6 4.4 6.3 98 0.1 SE 7 11 4 6 1024.0 1023.8 0.0
27/02:30am 6.1 3.4 5.8 98 0.1 SE 9 11 5 6 1024.1 - 0.0
27/02:00am 7.3 5.3 7.0 98 0.1 SE 7 9 4 5 1024.3 - 0.0
27/01:30am 6.2 3.6 5.9 98 0.1 SE 9 11 5 6 1024.5 - 0.0
27/01:00am 7.7 5.8 7.4 98 0.1 SE 7 9 4 5 1024.8 - 0.0
27/12:30am 7.5 5.5 7.2 98 0.1 SE 7 9 4 5 1024.9 - 0.0
27/12:00am 8.1 6.3 7.8 98 0.1 SE 7 9 4 5 1025.0 1024.8 0.0
 
Date/Time
EDT
Temp
°C
App
Temp
°C
Dew
Point
Rel
Hum
%
Delta-T
°C
Wind Press
QNH
hPa
Press
MSL
hPa
Rain
since 9 am
mm
Dir
 
Spd
km/h
Gust
km/h
Spd
kts
Gust
kts
26/11:30pm 9.0 7.4 8.7 98 0.1 SSE 7 11 4 6 1025.0 - 0.0
26/11:00pm 9.3 7.2 8.4 94 0.4 SE 9 13 5 7 1024.9 - 0.0
26/10:30pm 10.8 8.1 9.1 89 0.9 SSE 13 20 7 11 1024.7 - 0.0
26/10:00pm 10.8 9.6 10.2 96 0.3 SSE 7 9 4 5 1024.5 - 0.0
26/09:30pm 10.9 8.9 8.7 86 1.1 S 9 13 5 7 1024.1 - 0.0
26/09:00pm 11.7 9.1 7.8 77 1.9 SSW 11 17 6 9 1023.9 1023.7 0.0
26/08:30pm 12.9 10.0 8.0 72 2.4 S 13 20 7 11 1023.7 - 0.0
26/08:00pm 14.6 10.4 8.3 66 3.2 S 20 26 11 14 1023.5 - 0.0
26/07:30pm 15.5 11.7 9.2 66 3.3 SSW 19 30 10 16 1023.3 - 0.0
26/07:00pm 16.7 12.5 9.9 64 3.6 S 22 32 12 17 1023.0 - 0.0
26/06:30pm 17.4 12.5 9.8 61 4.0 S 26 35 14 19 1022.6 - 0.0
26/06:00pm 17.5 13.7 11.1 66 3.5 S 22 30 12 16 1022.3 1022.1 0.0
26/05:30pm 18.1 14.5 11.7 66 3.5 S 22 30 12 16 1022.3 - 0.0
26/05:00pm 17.5 13.9 11.8 69 3.1 S 22 32 12 17 1022.4 - 0.0
26/04:30pm 16.3 13.8 14.1 87 1.3 SSW 20 35 11 19 1022.5 - 0.0
26/04:00pm 20.8 18.5 14.7 68 3.6 SSW 20 32 11 17 1022.2 - 0.0
26/03:30pm 17.5 15.6 15.1 86 1.4 SW 19 26 10 14 1022.6 - 0.0
26/03:00pm 16.7 16.0 16.4 98 0.2 SSW 15 22 8 12 1022.7 1022.5 0.0
26/02:30pm 15.9 13.9 15.6 98 0.2 SW 20 33 11 18 1023.0 - 0.0
26/02:00pm 18.1 14.9 11.9 67 3.4 S 20 26 11 14 1022.8 - 0.0
26/01:30pm 17.8 15.3 10.9 64 3.7 SW 15 24 8 13 1022.9 - 0.0
26/01:00pm 17.4 14.1 11.0 66 3.5 SW 19 28 10 15 1022.9 - 0.0
26/12:30pm 17.1 13.8 10.9 67 3.3 WSW 19 26 10 14 1023.0 - 0.0
26/12:00pm 17.6 15.6 11.4 67 3.4 WSW 13 20 7 11 1023.1 1022.9 0.0
26/11:30am 17.0 14.6 10.1 64 3.7 W 13 26 7 14 1023.1 - 0.0
26/11:00am 17.4 15.1 10.3 63 3.8 SSW 13 20 7 11 1023.0 - 0.0
26/10:30am 16.2 13.0 10.1 67 3.2 SW 17 24 9 13 1022.9 - 0.0
26/10:00am 16.5 13.7 9.9 65 3.5 WSW 15 22 8 12 1022.9 - 0.0
26/09:30am 15.7 13.3 10.2 70 2.9 SW 13 24 7 13 1022.7 - 0.0
26/09:00am 14.1 12.4 9.9 76 2.2 WSW 9 17 5 9 1022.6 1022.4 0.0
26/08:30am 13.0 11.0 10.2 83 1.5 W 11 15 6 8 1022.5 - 0.0
26/08:00am 12.4 10.8 10.3 87 1.1 WNW 9 13 5 7 1022.0 - 0.0
26/07:30am 11.6 10.6 10.3 92 0.7 W 6 9 3 5 1021.8 - 0.0
26/07:00am 11.1 9.4 10.0 93 0.6 W 9 13 5 7 1021.7 - 0.0
26/06:30am 10.5 9.1 9.4 93 0.6 WNW 7 9 4 5 1021.3 - 0.0
26/06:00am 10.3 8.8 9.1 92 0.6 WNW 7 9 4 5 1021.1 1020.9 0.0
26/05:30am 10.4 8.8 8.8 90 0.8 W 7 11 4 6 1021.1 - 0.0
26/05:00am 10.5 8.1 8.6 88 0.9 W 11 19 6 10 1021.0 - 0.0
26/04:30am 10.0 8.0 8.6 91 0.7 W 9 13 5 7 1020.7 - 0.0
26/04:00am 9.3 7.8 9.0 98 0.1 W 7 9 4 5 1020.6 - 0.0
26/03:30am 8.8 7.1 8.5 98 0.1 WNW 7 9 4 5 1020.7 - 0.0
26/03:00am 8.4 6.3 8.1 98 0.1 NW 9 11 5 6 1020.9 1020.7 0.0
26/02:30am 7.8 7.2 7.5 98 0.1 CALM 0 0 0 0 1021.1 - 0.0
26/02:00am 7.1 6.4 6.8 98 0.1 CALM 0 0 0 0 1021.3 - 0.0
26/01:30am 7.3 6.6 7.0 98 0.1 CALM 0 0 0 0 1021.7 - 0.0
26/01:00am 7.0 6.2 6.7 98 0.1 CALM 0 0 0 0 1021.9 - 0.0
26/12:30am 7.1 5.2 6.8 98 0.1 W 6 6 3 3 1022.2 - 0.0
26/12:00am 5.9 3.7 5.3 96 0.3 W 6 7 3 4 1022.3 1022.1 0.0
 
Date/Time
EDT
Temp
°C
App
Temp
°C
Dew
Point
Rel
Hum
%
Delta-T
°C
Wind Press
QNH
hPa
Press
MSL
hPa
Rain
since 9 am
mm
Dir
 
Spd
km/h
Gust
km/h
Spd
kts
Gust
kts
25/11:30pm 6.8 4.5 4.6 86 1.0 WNW 6 7 3 4 1022.4 - 0.0
25/11:00pm 9.0 6.7 5.6 79 1.6 SW 7 9 4 5 1022.5 - 0.0
25/10:30pm 9.7 7.4 5.7 76 1.8 WSW 7 9 4 5 1022.5 - 0.0
25/10:00pm 10.0 7.6 5.4 73 2.1 SW 7 9 4 5 1022.3 - 0.0
25/09:30pm 11.6 8.6 5.9 68 2.7 WSW 11 15 6 8 1022.1 - 0.0
25/09:00pm 12.1 9.2 6.4 68 2.7 SW 11 13 6 7 1022.1 1021.9 0.0
25/08:30pm 12.1 8.8 6.2 67 2.8 SW 13 20 7 11 1021.9 - 0.0
25/08:00pm 13.5 9.1 6.4 62 3.4 SW 19 28 10 15 1021.8 - 0.0
25/07:30pm 15.0 9.6 6.3 56 4.2 SW 24 33 13 18 1021.5 - 0.0
25/07:00pm 15.3 10.9 6.6 56 4.3 WSW 19 28 10 15 1021.0 - 0.0
25/06:30pm 17.0 12.3 7.9 55 4.6 SW 22 41 12 22 1020.6 - 0.0
25/06:00pm 16.0 11.4 6.4 53 4.7 WSW 20 32 11 17 1020.4 1020.2 0.0
25/05:30pm 17.6 12.7 7.1 50 5.3 W 22 35 12 19 1020.3 - 0.0
25/05:00pm 18.0 12.4 7.1 49 5.5 W 26 37 14 20 1020.1 - 0.0
25/04:30pm 18.9 13.4 7.4 47 5.9 W 26 39 14 21 1020.1 - 0.0
25/04:00pm 21.1 16.7 7.3 41 7.1 SW 20 41 11 22 1019.9 - 0.0
25/03:30pm 19.0 14.8 8.4 50 5.5 WSW 20 33 11 18 1020.3 - 0.0
25/03:00pm 18.0 12.6 6.5 47 5.7 W 24 39 13 21 1020.4 1020.2 0.0
25/02:30pm 17.4 11.7 6.9 50 5.3 W 26 39 14 21 1020.6 - 0.0
25/02:00pm 18.5 12.6 7.3 48 5.7 WSW 28 41 15 22 1020.5 - 0.0
25/01:30pm 17.7 12.8 6.9 49 5.4 W 22 35 12 19 1020.6 - 0.0
25/01:00pm 18.6 14.5 8.0 50 5.5 SW 19 28 10 15 1020.6 - 0.0
25/12:30pm 18.2 13.3 6.7 47 5.8 W 22 37 12 20 1020.7 - 0.0
25/12:00pm 17.0 12.1 6.8 51 5.1 W 22 33 12 18 1020.8 1020.6 0.0
25/11:30am 15.8 10.1 6.8 55 4.4 WSW 26 37 14 20 1021.0 - 0.0
25/11:00am 16.4 11.3 6.0 50 5.1 W 22 35 12 19 1020.7 - 0.0
25/10:30am 15.3 10.2 6.1 54 4.5 W 22 32 12 17 1020.6 - 0.0
25/10:00am 15.3 11.1 7.3 59 4.0 W 19 30 10 16 1020.1 - 0.0
25/09:30am 15.3 11.9 9.0 66 3.2 W 17 24 9 13 1020.0 - 0.0
25/09:00am 14.2 10.5 9.6 74 2.4 W 19 28 10 15 1019.9 1019.8 0.2
25/08:30am 12.9 10.1 9.9 82 1.5 W 15 24 8 13 1019.5 - 0.2
25/08:00am 11.4 10.0 10.8 96 0.3 W 9 15 5 8 1019.2 - 0.2
25/07:30am 10.3 7.9 10.0 98 0.2 WNW 13 17 7 9 1019.2 - 0.2
25/07:00am 9.6 7.4 9.3 98 0.1 WNW 11 15 6 8 1018.7 - 0.2
25/06:30am 9.3 7.4 9.0 98 0.1 NW 9 15 5 8 1018.1 - 0.2
25/06:00am 8.9 6.5 8.6 98 0.1 NW 11 13 6 7 1017.8 1017.6 0.2
25/05:30am 8.8 6.4 8.5 98 0.1 WNW 11 15 6 8 1017.2 - 0.2
25/05:00am 8.5 6.4 8.2 98 0.1 W 9 15 5 8 1016.8 - 0.2
25/04:30am 7.3 4.1 7.0 98 0.1 W 13 17 7 9 1016.6 - 0.2
25/04:00am 7.7 5.0 7.4 98 0.1 W 11 15 6 8 1016.4 - 0.2
25/03:30am 7.7 5.0 7.4 98 0.1 W 11 15 6 8 1016.5 - 0.2
25/03:00am 7.5 4.8 7.2 98 0.1 WNW 11 15 6 8 1016.7 1016.5 0.2
25/02:30am 7.6 4.9 7.3 98 0.1 WNW 11 15 6 8 1016.4 - 0.2
25/02:00am 8.2 6.0 7.9 98 0.1 WNW 9 13 5 7 1016.5 - 0.2
25/01:30am 7.5 4.8 7.2 98 0.1 WNW 11 17 6 9 1016.5 - 0.2
25/01:00am 7.0 4.5 6.7 98 0.1 W 9 11 5 6 1016.4 - 0.2
25/12:30am 7.8 5.1 7.4 97 0.2 W 11 13 6 7 1016.3 - 0.2
25/12:00am 8.0 5.5 6.5 90 0.7 W 9 11 5 6 1016.2 1016.0 0.2
 
Date/Time
EDT
Temp
°C
App
Temp
°C
Dew
Point
Rel
Hum
%
Delta-T
°C
Wind Press
QNH
hPa
Press
MSL
hPa
Rain
since 9 am
mm
Dir
 
Spd
km/h
Gust
km/h
Spd
kts
Gust
kts
24/11:30pm 8.8 5.9 6.4 85 1.1 W 11 13 6 7 1016.0 - 0.2
24/11:00pm 9.6 6.3 6.5 81 1.5 WNW 13 17 7 9 1015.9 - 0.2
24/10:30pm 10.2 7.1 5.4 72 2.2 W 11 15 6 8 1015.8 - 0.2
24/10:00pm 11.0 8.0 6.2 72 2.3 W 11 15 6 8 1015.5 - 0.2
24/09:30pm 11.4 7.6 5.7 68 2.7 W 15 24 8 13 1015.0 - 0.2
24/09:00pm 12.1 7.9 5.5 64 3.1 W 17 24 9 13 1014.7 1014.5 0.2
24/08:30pm 12.9 8.4 6.3 64 3.2 W 19 28 10 15 1014.2 - 0.2
24/08:00pm 14.3 8.0 5.7 56 4.1 WSW 28 41 15 22 1013.7 - 0.2
24/07:30pm 15.3 9.3 5.2 51 4.8 WSW 26 43 14 23 1012.9 - 0.2
24/07:00pm 15.6 7.9 5.2 50 5.0 WSW 35 48 19 26 1012.1 - 0.2
24/06:30pm 16.7 9.3 4.1 43 5.9 W 32 54 17 29 1011.5 - 0.2
24/06:00pm 16.7 10.0 5.6 48 5.4 WSW 30 52 16 28 1011.1 1010.9 0.2
24/05:30pm 17.6 10.2 4.9 43 6.1 WSW 33 54 18 29 1010.9 - 0.2
24/05:00pm 18.4 10.5 6.3 45 6.0 WSW 37 56 20 30 1010.6 - 0.2
24/04:57pm 18.3 10.6 7.1 48 5.7 WSW 37 56 20 30 1010.6 - 0.2
24/04:30pm 17.9 10.9 7.0 49 5.5 WSW 33 46 18 25 1010.7 - 0.2
24/04:25pm 19.0 13.2 7.8 48 5.8 WSW 28 46 15 25 1010.7 - 0.2

Other Formats:

Comma delimited format used in spreadsheet applications
http://www.bom.gov.au/fwo/IDV60801/IDV60801.95825.axf

JavaScript Object Notation format (JSON) in row-major order
http://www.bom.gov.au/fwo/IDV60801/IDV60801.95825.json